sensor_id;sensor_type;location;lat;lon;timestamp;P1;durP1;ratioP1;P2;durP2;ratioP2
7205;SDS011;3644;53.480;10.004;2023-03-01T00:01:39;38.50;;;15.70;;
7205;SDS011;3644;53.480;10.004;2023-03-01T00:04:05;50.90;;;22.50;;
7205;SDS011;3644;53.480;10.004;2023-03-01T00:06:31;55.53;;;22.00;;
7205;SDS011;3644;53.480;10.004;2023-03-01T00:08:56;62.37;;;23.93;;
7205;SDS011;3644;53.480;10.004;2023-03-01T00:11:24;45.90;;;21.10;;
7205;SDS011;3644;53.480;10.004;2023-03-01T00:13:52;47.63;;;19.57;;
7205;SDS011;3644;53.480;10.004;2023-03-01T00:16:21;47.80;;;19.83;;
7205;SDS011;3644;53.480;10.004;2023-03-01T00:18:51;52.03;;;18.90;;
7205;SDS011;3644;53.480;10.004;2023-03-01T00:21:17;38.17;;;16.27;;
7205;SDS011;3644;53.480;10.004;2023-03-01T00:23:44;63.57;;;15.80;;
7205;SDS011;3644;53.480;10.004;2023-03-01T00:26:11;34.03;;;15.43;;
7205;SDS011;3644;53.480;10.004;2023-03-01T00:28:38;30.20;;;13.17;;
7205;SDS011;3644;53.480;10.004;2023-03-01T00:31:04;31.40;;;14.23;;
7205;SDS011;3644;53.480;10.004;2023-03-01T00:33:31;36.67;;;13.53;;
7205;SDS011;3644;53.480;10.004;2023-03-01T00:35:58;33.63;;;14.80;;
7205;SDS011;3644;53.480;10.004;2023-03-01T00:38:24;35.50;;;14.60;;
7205;SDS011;3644;53.480;10.004;2023-03-01T00:40:49;30.27;;;13.17;;
7205;SDS011;3644;53.480;10.004;2023-03-01T00:43:15;27.23;;;13.57;;
7205;SDS011;3644;53.480;10.004;2023-03-01T00:45:40;19.80;;;10.90;;
7205;SDS011;3644;53.480;10.004;2023-03-01T00:48:06;26.50;;;12.57;;
7205;SDS011;3644;53.480;10.004;2023-03-01T00:50:31;29.73;;;12.27;;
7205;SDS011;3644;53.480;10.004;2023-03-01T00:52:57;38.60;;;11.07;;
7205;SDS011;3644;53.480;10.004;2023-03-01T00:55:22;28.00;;;10.53;;
7205;SDS011;3644;53.480;10.004;2023-03-01T00:57:48;24.23;;;11.37;;
7205;SDS011;3644;53.480;10.004;2023-03-01T01:00:14;21.27;;;10.80;;
7205;SDS011;3644;53.480;10.004;2023-03-01T01:02:40;20.73;;;10.27;;
7205;SDS011;3644;53.480;10.004;2023-03-01T01:05:05;22.70;;;9.03;;
7205;SDS011;3644;53.480;10.004;2023-03-01T01:07:31;19.23;;;9.83;;
7205;SDS011;3644;53.480;10.004;2023-03-01T01:09:57;21.63;;;8.10;;
7205;SDS011;3644;53.480;10.004;2023-03-01T01:12:23;19.33;;;9.10;;
7205;SDS011;3644;53.480;10.004;2023-03-01T01:14:48;18.20;;;8.40;;
7205;SDS011;3644;53.480;10.004;2023-03-01T01:17:13;17.30;;;8.40;;
7205;SDS011;3644;53.480;10.004;2023-03-01T01:19:39;16.80;;;8.10;;
7205;SDS011;3644;53.480;10.004;2023-03-01T01:22:05;16.33;;;8.70;;
7205;SDS011;3644;53.480;10.004;2023-03-01T01:24:30;15.97;;;8.40;;
7205;SDS011;3644;53.480;10.004;2023-03-01T01:26:56;19.13;;;8.17;;
7205;SDS011;3644;53.480;10.004;2023-03-01T01:29:21;9.37;;;6.73;;
7205;SDS011;3644;53.480;10.004;2023-03-01T01:31:47;18.50;;;8.37;;
7205;SDS011;3644;53.480;10.004;2023-03-01T01:34:14;18.20;;;8.10;;
7205;SDS011;3644;53.480;10.004;2023-03-01T01:36:42;12.93;;;7.17;;
7205;SDS011;3644;53.480;10.004;2023-03-01T01:39:08;13.27;;;7.13;;
7205;SDS011;3644;53.480;10.004;2023-03-01T01:41:37;13.83;;;7.00;;
7205;SDS011;3644;53.480;10.004;2023-03-01T01:46:54;11.93;;;7.03;;
7205;SDS011;3644;53.480;10.004;2023-03-01T01:49:35;11.83;;;6.63;;
7205;SDS011;3644;53.480;10.004;2023-03-01T01:52:09;10.07;;;6.83;;
7205;SDS011;3644;53.480;10.004;2023-03-01T01:54:38;12.67;;;6.33;;
7205;SDS011;3644;53.480;10.004;2023-03-01T01:57:27;12.13;;;5.77;;
7205;SDS011;3644;53.480;10.004;2023-03-01T01:59:59;17.87;;;7.40;;
7205;SDS011;3644;53.480;10.004;2023-03-01T02:02:28;11.77;;;6.20;;
7205;SDS011;3644;53.480;10.004;2023-03-01T02:04:58;11.70;;;6.20;;
7205;SDS011;3644;53.480;10.004;2023-03-01T02:07:35;9.70;;;6.00;;
7205;SDS011;3644;53.480;10.004;2023-03-01T02:10:04;11.03;;;6.90;;
7205;SDS011;3644;53.480;10.004;2023-03-01T02:12:30;14.43;;;7.20;;
7205;SDS011;3644;53.480;10.004;2023-03-01T02:14:57;11.83;;;6.47;;
7205;SDS011;3644;53.480;10.004;2023-03-01T02:17:22;9.80;;;6.40;;
7205;SDS011;3644;53.480;10.004;2023-03-01T02:22:24;7.97;;;5.20;;
7205;SDS011;3644;53.480;10.004;2023-03-01T02:27:58;10.60;;;6.40;;
7205;SDS011;3644;53.480;10.004;2023-03-01T02:30:38;18.43;;;6.37;;
7205;SDS011;3644;53.480;10.004;2023-03-01T02:33:25;10.60;;;7.60;;
7205;SDS011;3644;53.480;10.004;2023-03-01T02:35:51;12.63;;;5.53;;
7205;SDS011;3644;53.480;10.004;2023-03-01T02:38:19;11.30;;;6.67;;
7205;SDS011;3644;53.480;10.004;2023-03-01T02:40:45;15.87;;;7.20;;
7205;SDS011;3644;53.480;10.004;2023-03-01T02:43:13;12.60;;;7.00;;
7205;SDS011;3644;53.480;10.004;2023-03-01T02:45:43;6.97;;;5.53;;
7205;SDS011;3644;53.480;10.004;2023-03-01T02:48:18;12.60;;;6.43;;
7205;SDS011;3644;53.480;10.004;2023-03-01T02:50:52;12.00;;;6.40;;
7205;SDS011;3644;53.480;10.004;2023-03-01T02:53:41;11.70;;;5.80;;
7205;SDS011;3644;53.480;10.004;2023-03-01T02:56:19;8.47;;;4.73;;
7205;SDS011;3644;53.480;10.004;2023-03-01T02:58:45;15.77;;;7.03;;
7205;SDS011;3644;53.480;10.004;2023-03-01T03:01:15;8.63;;;5.47;;
7205;SDS011;3644;53.480;10.004;2023-03-01T03:03:41;9.20;;;5.97;;
7205;SDS011;3644;53.480;10.004;2023-03-01T03:06:07;10.53;;;5.77;;
7205;SDS011;3644;53.480;10.004;2023-03-01T03:08:33;11.77;;;6.00;;
7205;SDS011;3644;53.480;10.004;2023-03-01T03:10:59;15.00;;;5.63;;
7205;SDS011;3644;53.480;10.004;2023-03-01T03:13:25;9.40;;;5.37;;
7205;SDS011;3644;53.480;10.004;2023-03-01T03:15:53;9.13;;;6.33;;
7205;SDS011;3644;53.480;10.004;2023-03-01T03:18:22;9.40;;;6.13;;
7205;SDS011;3644;53.480;10.004;2023-03-01T03:20:50;10.87;;;5.63;;
7205;SDS011;3644;53.480;10.004;2023-03-01T03:23:18;8.10;;;4.40;;
7205;SDS011;3644;53.480;10.004;2023-03-01T03:25:47;15.20;;;6.37;;
7205;SDS011;3644;53.480;10.004;2023-03-01T03:28:13;7.07;;;5.57;;
7205;SDS011;3644;53.480;10.004;2023-03-01T03:30:40;8.53;;;5.47;;
7205;SDS011;3644;53.480;10.004;2023-03-01T03:33:07;7.90;;;4.93;;
7205;SDS011;3644;53.480;10.004;2023-03-01T03:35:34;10.10;;;6.47;;
7205;SDS011;3644;53.480;10.004;2023-03-01T03:38:05;11.37;;;5.50;;
7205;SDS011;3644;53.480;10.004;2023-03-01T03:40:40;6.77;;;4.70;;
7205;SDS011;3644;53.480;10.004;2023-03-01T03:43:26;14.37;;;7.13;;
7205;SDS011;3644;53.480;10.004;2023-03-01T03:45:51;22.57;;;7.77;;
7205;SDS011;3644;53.480;10.004;2023-03-01T03:48:17;10.37;;;6.23;;
7205;SDS011;3644;53.480;10.004;2023-03-01T03:50:47;14.90;;;6.90;;
7205;SDS011;3644;53.480;10.004;2023-03-01T03:53:14;13.50;;;6.77;;
7205;SDS011;3644;53.480;10.004;2023-03-01T03:55:40;8.70;;;5.80;;
7205;SDS011;3644;53.480;10.004;2023-03-01T03:58:07;17.53;;;6.43;;
7205;SDS011;3644;53.480;10.004;2023-03-01T04:00:35;8.27;;;5.90;;
7205;SDS011;3644;53.480;10.004;2023-03-01T04:03:05;11.70;;;6.67;;
7205;SDS011;3644;53.480;10.004;2023-03-01T04:05:31;10.20;;;6.33;;
7205;SDS011;3644;53.480;10.004;2023-03-01T04:07:57;10.60;;;7.50;;
7205;SDS011;3644;53.480;10.004;2023-03-01T04:10:42;15.10;;;8.40;;
7205;SDS011;3644;53.480;10.004;2023-03-01T04:13:10;20.50;;;8.90;;
7205;SDS011;3644;53.480;10.004;2023-03-01T04:15:38;26.37;;;13.63;;
7205;SDS011;3644;53.480;10.004;2023-03-01T04:18:04;24.63;;;10.40;;
7205;SDS011;3644;53.480;10.004;2023-03-01T04:20:31;14.83;;;6.97;;
7205;SDS011;3644;53.480;10.004;2023-03-01T04:23:09;14.63;;;6.97;;
7205;SDS011;3644;53.480;10.004;2023-03-01T04:25:46;11.17;;;6.27;;
7205;SDS011;3644;53.480;10.004;2023-03-01T04:28:14;6.37;;;5.20;;
7205;SDS011;3644;53.480;10.004;2023-03-01T04:30:39;11.03;;;5.50;;
7205;SDS011;3644;53.480;10.004;2023-03-01T04:33:06;11.93;;;6.20;;
7205;SDS011;3644;53.480;10.004;2023-03-01T04:35:33;9.60;;;6.80;;
7205;SDS011;3644;53.480;10.004;2023-03-01T04:38:00;12.10;;;5.10;;
7205;SDS011;3644;53.480;10.004;2023-03-01T04:40:26;8.07;;;5.50;;
7205;SDS011;3644;53.480;10.004;2023-03-01T04:42:51;8.37;;;5.57;;
7205;SDS011;3644;53.480;10.004;2023-03-01T04:45:17;10.87;;;5.77;;
7205;SDS011;3644;53.480;10.004;2023-03-01T04:47:43;7.87;;;5.10;;
7205;SDS011;3644;53.480;10.004;2023-03-01T04:50:11;11.67;;;5.33;;
7205;SDS011;3644;53.480;10.004;2023-03-01T04:52:38;9.43;;;5.57;;
7205;SDS011;3644;53.480;10.004;2023-03-01T04:55:04;8.60;;;5.43;;
7205;SDS011;3644;53.480;10.004;2023-03-01T04:57:30;11.60;;;5.30;;
7205;SDS011;3644;53.480;10.004;2023-03-01T04:59:56;7.37;;;5.40;;
7205;SDS011;3644;53.480;10.004;2023-03-01T05:02:22;13.60;;;5.33;;
7205;SDS011;3644;53.480;10.004;2023-03-01T05:04:48;9.50;;;5.40;;
7205;SDS011;3644;53.480;10.004;2023-03-01T05:07:13;9.87;;;7.20;;
7205;SDS011;3644;53.480;10.004;2023-03-01T05:09:44;13.73;;;5.67;;
7205;SDS011;3644;53.480;10.004;2023-03-01T05:12:13;10.87;;;5.77;;
7205;SDS011;3644;53.480;10.004;2023-03-01T05:14:39;10.73;;;6.50;;
7205;SDS011;3644;53.480;10.004;2023-03-01T05:17:05;7.50;;;5.83;;
7205;SDS011;3644;53.480;10.004;2023-03-01T05:19:31;14.77;;;6.77;;
7205;SDS011;3644;53.480;10.004;2023-03-01T05:21:57;18.70;;;7.60;;
7205;SDS011;3644;53.480;10.004;2023-03-01T05:24:26;8.13;;;6.03;;
7205;SDS011;3644;53.480;10.004;2023-03-01T05:26:52;12.33;;;5.93;;
7205;SDS011;3644;53.480;10.004;2023-03-01T05:29:19;8.30;;;5.57;;
7205;SDS011;3644;53.480;10.004;2023-03-01T05:31:52;14.80;;;5.83;;
7205;SDS011;3644;53.480;10.004;2023-03-01T05:34:26;9.03;;;5.93;;
7205;SDS011;3644;53.480;10.004;2023-03-01T05:36:53;7.80;;;5.17;;
7205;SDS011;3644;53.480;10.004;2023-03-01T05:39:28;15.70;;;7.07;;
7205;SDS011;3644;53.480;10.004;2023-03-01T05:41:55;8.20;;;5.00;;
7205;SDS011;3644;53.480;10.004;2023-03-01T05:44:23;6.53;;;5.40;;
7205;SDS011;3644;53.480;10.004;2023-03-01T05:46:49;5.80;;;4.83;;
7205;SDS011;3644;53.480;10.004;2023-03-01T05:49:14;16.67;;;5.00;;
7205;SDS011;3644;53.480;10.004;2023-03-01T05:51:41;7.73;;;5.40;;
7205;SDS011;3644;53.480;10.004;2023-03-01T05:54:08;6.23;;;5.37;;
7205;SDS011;3644;53.480;10.004;2023-03-01T05:56:35;12.43;;;6.70;;
7205;SDS011;3644;53.480;10.004;2023-03-01T05:59:01;8.67;;;5.90;;
7205;SDS011;3644;53.480;10.004;2023-03-01T06:01:28;16.10;;;7.53;;
7205;SDS011;3644;53.480;10.004;2023-03-01T06:03:54;13.40;;;6.53;;
7205;SDS011;3644;53.480;10.004;2023-03-01T06:06:20;11.80;;;6.90;;
7205;SDS011;3644;53.480;10.004;2023-03-01T06:08:46;10.67;;;6.27;;
7205;SDS011;3644;53.480;10.004;2023-03-01T06:11:11;13.97;;;5.97;;
7205;SDS011;3644;53.480;10.004;2023-03-01T06:13:37;9.90;;;5.83;;
7205;SDS011;3644;53.480;10.004;2023-03-01T06:16:05;6.90;;;5.00;;
7205;SDS011;3644;53.480;10.004;2023-03-01T06:18:31;12.00;;;5.83;;
7205;SDS011;3644;53.480;10.004;2023-03-01T06:20:57;5.43;;;4.47;;
7205;SDS011;3644;53.480;10.004;2023-03-01T06:23:23;8.97;;;6.03;;
7205;SDS011;3644;53.480;10.004;2023-03-01T06:25:49;8.17;;;5.30;;
7205;SDS011;3644;53.480;10.004;2023-03-01T06:28:15;7.87;;;5.80;;
7205;SDS011;3644;53.480;10.004;2023-03-01T06:30:40;14.17;;;4.80;;
7205;SDS011;3644;53.480;10.004;2023-03-01T06:33:06;9.43;;;5.53;;
7205;SDS011;3644;53.480;10.004;2023-03-01T06:35:32;15.97;;;8.40;;
7205;SDS011;3644;53.480;10.004;2023-03-01T06:38:00;18.23;;;10.80;;
7205;SDS011;3644;53.480;10.004;2023-03-01T06:40:27;27.20;;;15.07;;
7205;SDS011;3644;53.480;10.004;2023-03-01T06:42:53;30.83;;;15.70;;
7205;SDS011;3644;53.480;10.004;2023-03-01T06:45:19;24.10;;;12.00;;
7205;SDS011;3644;53.480;10.004;2023-03-01T06:47:45;18.37;;;8.60;;
7205;SDS011;3644;53.480;10.004;2023-03-01T06:50:12;14.70;;;6.93;;
7205;SDS011;3644;53.480;10.004;2023-03-01T06:52:38;12.37;;;6.40;;
7205;SDS011;3644;53.480;10.004;2023-03-01T06:55:04;12.53;;;6.57;;
7205;SDS011;3644;53.480;10.004;2023-03-01T06:57:31;11.00;;;7.00;;
7205;SDS011;3644;53.480;10.004;2023-03-01T06:59:56;10.80;;;6.03;;
7205;SDS011;3644;53.480;10.004;2023-03-01T07:02:22;9.53;;;6.27;;
7205;SDS011;3644;53.480;10.004;2023-03-01T07:04:48;10.40;;;5.90;;
7205;SDS011;3644;53.480;10.004;2023-03-01T07:07:15;8.43;;;5.57;;
7205;SDS011;3644;53.480;10.004;2023-03-01T07:09:42;8.97;;;5.50;;
7205;SDS011;3644;53.480;10.004;2023-03-01T07:12:11;12.27;;;6.53;;
7205;SDS011;3644;53.480;10.004;2023-03-01T07:14:37;7.80;;;5.00;;
7205;SDS011;3644;53.480;10.004;2023-03-01T07:17:02;14.00;;;4.33;;
7205;SDS011;3644;53.480;10.004;2023-03-01T07:19:28;11.93;;;5.40;;
7205;SDS011;3644;53.480;10.004;2023-03-01T07:21:53;8.10;;;4.30;;
7205;SDS011;3644;53.480;10.004;2023-03-01T07:24:20;6.43;;;4.60;;
7205;SDS011;3644;53.480;10.004;2023-03-01T07:26:49;9.80;;;5.00;;
7205;SDS011;3644;53.480;10.004;2023-03-01T07:29:15;14.93;;;5.40;;
7205;SDS011;3644;53.480;10.004;2023-03-01T07:31:41;15.73;;;5.70;;
7205;SDS011;3644;53.480;10.004;2023-03-01T07:34:07;9.63;;;5.57;;
7205;SDS011;3644;53.480;10.004;2023-03-01T07:36:32;15.33;;;5.97;;
7205;SDS011;3644;53.480;10.004;2023-03-01T07:38:58;11.10;;;5.80;;
7205;SDS011;3644;53.480;10.004;2023-03-01T07:41:24;10.03;;;5.80;;
7205;SDS011;3644;53.480;10.004;2023-03-01T07:43:49;13.53;;;5.50;;
7205;SDS011;3644;53.480;10.004;2023-03-01T07:46:15;11.63;;;6.07;;
7205;SDS011;3644;53.480;10.004;2023-03-01T07:48:40;10.13;;;5.77;;
7205;SDS011;3644;53.480;10.004;2023-03-01T07:51:06;8.87;;;5.20;;
7205;SDS011;3644;53.480;10.004;2023-03-01T07:53:32;8.73;;;5.50;;
7205;SDS011;3644;53.480;10.004;2023-03-01T07:56:05;8.90;;;5.37;;
7205;SDS011;3644;53.480;10.004;2023-03-01T07:58:36;6.70;;;4.40;;
7205;SDS011;3644;53.480;10.004;2023-03-01T08:01:09;6.47;;;3.97;;
7205;SDS011;3644;53.480;10.004;2023-03-01T08:03:39;14.63;;;4.17;;
7205;SDS011;3644;53.480;10.004;2023-03-01T08:06:05;9.37;;;4.47;;
7205;SDS011;3644;53.480;10.004;2023-03-01T08:08:32;6.50;;;4.50;;
7205;SDS011;3644;53.480;10.004;2023-03-01T08:10:58;8.13;;;3.73;;
7205;SDS011;3644;53.480;10.004;2023-03-01T08:13:25;7.37;;;4.50;;
7205;SDS011;3644;53.480;10.004;2023-03-01T08:15:51;9.90;;;4.57;;
7205;SDS011;3644;53.480;10.004;2023-03-01T08:18:18;6.90;;;3.50;;
7205;SDS011;3644;53.480;10.004;2023-03-01T08:20:44;13.27;;;4.93;;
7205;SDS011;3644;53.480;10.004;2023-03-01T08:23:09;7.60;;;4.53;;
7205;SDS011;3644;53.480;10.004;2023-03-01T08:25:35;4.37;;;3.77;;
7205;SDS011;3644;53.480;10.004;2023-03-01T08:28:01;5.67;;;4.20;;
7205;SDS011;3644;53.480;10.004;2023-03-01T08:30:27;10.07;;;5.17;;
7205;SDS011;3644;53.480;10.004;2023-03-01T08:32:52;10.90;;;4.13;;
7205;SDS011;3644;53.480;10.004;2023-03-01T08:35:19;5.60;;;3.70;;
7205;SDS011;3644;53.480;10.004;2023-03-01T08:37:45;10.23;;;5.37;;
7205;SDS011;3644;53.480;10.004;2023-03-01T08:40:10;7.57;;;5.07;;
7205;SDS011;3644;53.480;10.004;2023-03-01T08:42:38;10.07;;;4.90;;
7205;SDS011;3644;53.480;10.004;2023-03-01T08:45:04;6.87;;;4.20;;
7205;SDS011;3644;53.480;10.004;2023-03-01T08:47:30;11.23;;;4.10;;
7205;SDS011;3644;53.480;10.004;2023-03-01T08:49:58;8.67;;;4.63;;
7205;SDS011;3644;53.480;10.004;2023-03-01T08:52:24;10.00;;;5.73;;
7205;SDS011;3644;53.480;10.004;2023-03-01T08:54:51;7.50;;;3.93;;
7205;SDS011;3644;53.480;10.004;2023-03-01T08:57:16;28.90;;;5.57;;
7205;SDS011;3644;53.480;10.004;2023-03-01T08:59:42;15.40;;;5.47;;
7205;SDS011;3644;53.480;10.004;2023-03-01T09:02:14;7.57;;;5.10;;
7205;SDS011;3644;53.480;10.004;2023-03-01T09:04:41;8.23;;;4.70;;
7205;SDS011;3644;53.480;10.004;2023-03-01T09:07:07;9.43;;;4.63;;
7205;SDS011;3644;53.480;10.004;2023-03-01T09:09:33;7.90;;;5.27;;
7205;SDS011;3644;53.480;10.004;2023-03-01T09:11:59;9.30;;;5.67;;
7205;SDS011;3644;53.480;10.004;2023-03-01T09:14:25;28.83;;;5.30;;
7205;SDS011;3644;53.480;10.004;2023-03-01T09:16:50;9.63;;;4.63;;
7205;SDS011;3644;53.480;10.004;2023-03-01T09:19:16;7.07;;;5.27;;
7205;SDS011;3644;53.480;10.004;2023-03-01T09:21:41;13.00;;;4.93;;
7205;SDS011;3644;53.480;10.004;2023-03-01T09:24:17;13.53;;;4.50;;
7205;SDS011;3644;53.480;10.004;2023-03-01T09:26:43;7.17;;;5.10;;
7205;SDS011;3644;53.480;10.004;2023-03-01T09:29:11;8.57;;;5.10;;
7205;SDS011;3644;53.480;10.004;2023-03-01T09:31:37;10.67;;;6.00;;
7205;SDS011;3644;53.480;10.004;2023-03-01T09:34:03;9.03;;;6.80;;
7205;SDS011;3644;53.480;10.004;2023-03-01T09:36:29;10.17;;;6.53;;
7205;SDS011;3644;53.480;10.004;2023-03-01T09:38:54;12.70;;;7.13;;
7205;SDS011;3644;53.480;10.004;2023-03-01T09:47:18;22.07;;;6.40;;
7205;SDS011;3644;53.480;10.004;2023-03-01T09:49:50;17.10;;;7.60;;
7205;SDS011;3644;53.480;10.004;2023-03-01T09:52:32;15.43;;;6.90;;
7205;SDS011;3644;53.480;10.004;2023-03-01T09:55:08;16.60;;;7.13;;
7205;SDS011;3644;53.480;10.004;2023-03-01T09:57:47;17.40;;;7.03;;
7205;SDS011;3644;53.480;10.004;2023-03-01T10:00:33;17.90;;;7.50;;
7205;SDS011;3644;53.480;10.004;2023-03-01T10:03:26;17.40;;;8.07;;
7205;SDS011;3644;53.480;10.004;2023-03-01T10:11:33;23.73;;;9.73;;
7205;SDS011;3644;53.480;10.004;2023-03-01T10:16:58;13.93;;;9.10;;
7205;SDS011;3644;53.480;10.004;2023-03-01T10:21:57;14.87;;;8.60;;
7205;SDS011;3644;53.480;10.004;2023-03-01T10:24:50;18.03;;;9.00;;
7205;SDS011;3644;53.480;10.004;2023-03-01T10:29:49;14.60;;;9.50;;
7205;SDS011;3644;53.480;10.004;2023-03-01T10:32:21;15.47;;;9.30;;
7205;SDS011;3644;53.480;10.004;2023-03-01T10:34:47;17.30;;;9.90;;
7205;SDS011;3644;53.480;10.004;2023-03-01T10:37:16;18.90;;;10.13;;
7205;SDS011;3644;53.480;10.004;2023-03-01T10:42:33;19.10;;;10.30;;
7205;SDS011;3644;53.480;10.004;2023-03-01T10:47:42;17.77;;;10.37;;
7205;SDS011;3644;53.480;10.004;2023-03-01T10:50:17;21.10;;;10.13;;
7205;SDS011;3644;53.480;10.004;2023-03-01T10:52:56;14.30;;;9.30;;
7205;SDS011;3644;53.480;10.004;2023-03-01T10:55:27;15.47;;;9.83;;
7205;SDS011;3644;53.480;10.004;2023-03-01T11:00:47;20.23;;;9.90;;
7205;SDS011;3644;53.480;10.004;2023-03-01T11:03:21;12.80;;;8.30;;
7205;SDS011;3644;53.480;10.004;2023-03-01T11:08:40;9.00;;;6.70;;
7205;SDS011;3644;53.480;10.004;2023-03-01T11:11:18;11.73;;;7.80;;
7205;SDS011;3644;53.480;10.004;2023-03-01T11:16:38;14.80;;;9.00;;
7205;SDS011;3644;53.480;10.004;2023-03-01T11:21:35;12.80;;;9.13;;
7205;SDS011;3644;53.480;10.004;2023-03-01T11:24:06;17.53;;;8.17;;
7205;SDS011;3644;53.480;10.004;2023-03-01T11:26:36;20.63;;;9.03;;
7205;SDS011;3644;53.480;10.004;2023-03-01T11:29:07;16.83;;;8.80;;
7205;SDS011;3644;53.480;10.004;2023-03-01T11:31:59;14.67;;;7.77;;
7205;SDS011;3644;53.480;10.004;2023-03-01T11:34:40;17.73;;;8.67;;
7205;SDS011;3644;53.480;10.004;2023-03-01T11:37:24;11.20;;;9.10;;
7205;SDS011;3644;53.480;10.004;2023-03-01T11:42:48;23.90;;;9.13;;
7205;SDS011;3644;53.480;10.004;2023-03-01T11:45:24;14.87;;;8.70;;
7205;SDS011;3644;53.480;10.004;2023-03-01T11:47:59;11.13;;;7.90;;
7205;SDS011;3644;53.480;10.004;2023-03-01T11:50:49;10.60;;;6.90;;
7205;SDS011;3644;53.480;10.004;2023-03-01T11:58:27;24.00;;;6.90;;
7205;SDS011;3644;53.480;10.004;2023-03-01T12:01:20;10.53;;;6.60;;
7205;SDS011;3644;53.480;10.004;2023-03-01T12:06:52;11.90;;;6.93;;
7205;SDS011;3644;53.480;10.004;2023-03-01T12:12:33;11.30;;;6.30;;
7205;SDS011;3644;53.480;10.004;2023-03-01T12:18:04;6.80;;;5.40;;
7205;SDS011;3644;53.480;10.004;2023-03-01T12:20:55;9.13;;;5.50;;
7205;SDS011;3644;53.480;10.004;2023-03-01T12:25:58;15.03;;;5.67;;
7205;SDS011;3644;53.480;10.004;2023-03-01T12:31:17;10.23;;;6.67;;
7205;SDS011;3644;53.480;10.004;2023-03-01T12:34:00;11.77;;;7.40;;
7205;SDS011;3644;53.480;10.004;2023-03-01T12:39:33;12.20;;;6.83;;
7205;SDS011;3644;53.480;10.004;2023-03-01T12:42:11;11.07;;;6.80;;
7205;SDS011;3644;53.480;10.004;2023-03-01T12:44:46;13.33;;;6.83;;
7205;SDS011;3644;53.480;10.004;2023-03-01T12:47:36;12.63;;;7.40;;
7205;SDS011;3644;53.480;10.004;2023-03-01T12:50:26;8.03;;;6.43;;
7205;SDS011;3644;53.480;10.004;2023-03-01T12:53:10;12.00;;;5.37;;
7205;SDS011;3644;53.480;10.004;2023-03-01T12:55:48;9.03;;;5.97;;
7205;SDS011;3644;53.480;10.004;2023-03-01T12:58:20;9.63;;;6.40;;
7205;SDS011;3644;53.480;10.004;2023-03-01T13:09:04;11.43;;;6.73;;
7205;SDS011;3644;53.480;10.004;2023-03-01T13:11:41;13.17;;;8.23;;
7205;SDS011;3644;53.480;10.004;2023-03-01T13:14:34;10.10;;;7.67;;
7205;SDS011;3644;53.480;10.004;2023-03-01T13:16:55;16.60;;;7.10;;
7205;SDS011;3644;53.480;10.004;2023-03-01T13:19:22;11.73;;;6.67;;
7205;SDS011;3644;53.480;10.004;2023-03-01T13:21:50;18.93;;;10.20;;
7205;SDS011;3644;53.480;10.004;2023-03-01T13:29:43;10.07;;;6.67;;
7205;SDS011;3644;53.480;10.004;2023-03-01T13:37:42;10.27;;;6.83;;
7205;SDS011;3644;53.480;10.004;2023-03-01T13:42:48;13.13;;;6.40;;
7205;SDS011;3644;53.480;10.004;2023-03-01T13:45:20;14.20;;;6.10;;
7205;SDS011;3644;53.480;10.004;2023-03-01T13:47:48;8.90;;;5.83;;
7205;SDS011;3644;53.480;10.004;2023-03-01T13:50:27;12.83;;;5.97;;
7205;SDS011;3644;53.480;10.004;2023-03-01T13:52:57;9.43;;;6.37;;
7205;SDS011;3644;53.480;10.004;2023-03-01T13:58:29;6.40;;;5.20;;
7205;SDS011;3644;53.480;10.004;2023-03-01T14:01:00;12.03;;;5.43;;
7205;SDS011;3644;53.480;10.004;2023-03-01T14:03:28;10.47;;;5.93;;
7205;SDS011;3644;53.480;10.004;2023-03-01T14:05:59;8.13;;;5.13;;
7205;SDS011;3644;53.480;10.004;2023-03-01T14:08:26;10.50;;;5.87;;
7205;SDS011;3644;53.480;10.004;2023-03-01T14:11:09;8.50;;;5.47;;
7205;SDS011;3644;53.480;10.004;2023-03-01T14:16:49;10.57;;;6.30;;
7205;SDS011;3644;53.480;10.004;2023-03-01T14:19:28;13.93;;;5.80;;
7205;SDS011;3644;53.480;10.004;2023-03-01T14:24:49;10.60;;;5.77;;
7205;SDS011;3644;53.480;10.004;2023-03-01T14:27:23;10.03;;;6.73;;
7205;SDS011;3644;53.480;10.004;2023-03-01T14:29:58;9.67;;;6.57;;
7205;SDS011;3644;53.480;10.004;2023-03-01T14:32:29;9.23;;;6.20;;
7205;SDS011;3644;53.480;10.004;2023-03-01T14:34:56;8.90;;;6.40;;
7205;SDS011;3644;53.480;10.004;2023-03-01T14:37:30;9.50;;;6.77;;
7205;SDS011;3644;53.480;10.004;2023-03-01T14:39:58;9.53;;;6.70;;
7205;SDS011;3644;53.480;10.004;2023-03-01T14:42:27;10.23;;;6.10;;
7205;SDS011;3644;53.480;10.004;2023-03-01T14:44:55;9.50;;;6.70;;
7205;SDS011;3644;53.480;10.004;2023-03-01T14:47:27;8.00;;;6.47;;
7205;SDS011;3644;53.480;10.004;2023-03-01T14:50:18;8.77;;;6.63;;
7205;SDS011;3644;53.480;10.004;2023-03-01T14:52:48;10.97;;;5.43;;
7205;SDS011;3644;53.480;10.004;2023-03-01T14:55:50;15.30;;;6.50;;
7205;SDS011;3644;53.480;10.004;2023-03-01T14:58:14;9.50;;;6.63;;
7205;SDS011;3644;53.480;10.004;2023-03-01T15:00:51;13.73;;;6.27;;
7205;SDS011;3644;53.480;10.004;2023-03-01T15:03:27;10.17;;;5.67;;
7205;SDS011;3644;53.480;10.004;2023-03-01T15:05:58;7.33;;;5.03;;
7205;SDS011;3644;53.480;10.004;2023-03-01T15:08:25;7.97;;;5.17;;
7205;SDS011;3644;53.480;10.004;2023-03-01T15:13:38;7.07;;;5.20;;
7205;SDS011;3644;53.480;10.004;2023-03-01T15:18:35;7.27;;;4.70;;
7205;SDS011;3644;53.480;10.004;2023-03-01T15:21:05;8.10;;;4.80;;
7205;SDS011;3644;53.480;10.004;2023-03-01T15:23:40;6.60;;;4.60;;
7205;SDS011;3644;53.480;10.004;2023-03-01T15:26:05;5.50;;;4.67;;
7205;SDS011;3644;53.480;10.004;2023-03-01T15:28:33;6.93;;;4.97;;
7205;SDS011;3644;53.480;10.004;2023-03-01T15:31:22;7.83;;;5.20;;
7205;SDS011;3644;53.480;10.004;2023-03-01T15:34:10;7.17;;;4.70;;
7205;SDS011;3644;53.480;10.004;2023-03-01T15:36:48;9.03;;;6.20;;
7205;SDS011;3644;53.480;10.004;2023-03-01T15:42:09;9.10;;;5.10;;
7205;SDS011;3644;53.480;10.004;2023-03-01T15:47:55;8.50;;;5.03;;
7205;SDS011;3644;53.480;10.004;2023-03-01T15:50:29;8.40;;;5.43;;
7205;SDS011;3644;53.480;10.004;2023-03-01T15:53:00;11.27;;;4.27;;
7205;SDS011;3644;53.480;10.004;2023-03-01T15:55:29;9.90;;;5.70;;
7205;SDS011;3644;53.480;10.004;2023-03-01T15:57:59;6.00;;;4.60;;
7205;SDS011;3644;53.480;10.004;2023-03-01T16:00:34;8.17;;;4.80;;
7205;SDS011;3644;53.480;10.004;2023-03-01T16:03:00;7.30;;;4.93;;
7205;SDS011;3644;53.480;10.004;2023-03-01T16:05:30;9.43;;;5.37;;
7205;SDS011;3644;53.480;10.004;2023-03-01T16:07:57;12.90;;;5.23;;
7205;SDS011;3644;53.480;10.004;2023-03-01T16:10:23;11.37;;;5.17;;
7205;SDS011;3644;53.480;10.004;2023-03-01T16:12:50;8.57;;;5.27;;
7205;SDS011;3644;53.480;10.004;2023-03-01T16:15:27;12.77;;;5.33;;
7205;SDS011;3644;53.480;10.004;2023-03-01T16:17:55;7.70;;;5.60;;
7205;SDS011;3644;53.480;10.004;2023-03-01T16:20:23;7.27;;;5.23;;
7205;SDS011;3644;53.480;10.004;2023-03-01T16:22:49;5.90;;;4.90;;
7205;SDS011;3644;53.480;10.004;2023-03-01T16:25:17;6.77;;;5.40;;
7205;SDS011;3644;53.480;10.004;2023-03-01T16:27:45;6.90;;;5.00;;
7205;SDS011;3644;53.480;10.004;2023-03-01T16:30:12;9.20;;;5.17;;
7205;SDS011;3644;53.480;10.004;2023-03-01T16:32:39;14.13;;;5.13;;
7205;SDS011;3644;53.480;10.004;2023-03-01T16:35:06;7.83;;;5.43;;
7205;SDS011;3644;53.480;10.004;2023-03-01T16:37:34;9.17;;;6.07;;
7205;SDS011;3644;53.480;10.004;2023-03-01T16:40:00;7.53;;;5.80;;
7205;SDS011;3644;53.480;10.004;2023-03-01T16:42:25;11.70;;;6.93;;
7205;SDS011;3644;53.480;10.004;2023-03-01T16:44:54;11.87;;;6.50;;
7205;SDS011;3644;53.480;10.004;2023-03-01T16:47:20;9.30;;;5.97;;
7205;SDS011;3644;53.480;10.004;2023-03-01T16:49:46;13.90;;;6.53;;
7205;SDS011;3644;53.480;10.004;2023-03-01T16:52:11;11.57;;;7.40;;
7205;SDS011;3644;53.480;10.004;2023-03-01T16:54:37;14.23;;;7.90;;
7205;SDS011;3644;53.480;10.004;2023-03-01T16:57:02;11.27;;;6.50;;